createdAt,value
2022-11-22T00:06:18.363Z,955.48
2022-11-22T00:13:37.900Z,955.53
2022-11-22T00:21:01.088Z,955.48
2022-11-22T00:28:37.650Z,955.59
2022-11-22T00:36:07.576Z,955.62
2022-11-22T00:43:36.269Z,955.7
2022-11-22T00:51:03.635Z,955.76
2022-11-22T00:58:42.413Z,955.81
2022-11-22T01:06:06.788Z,956.03
2022-11-22T01:13:36.223Z,956.09
2022-11-22T01:21:11.483Z,956.27
2022-11-22T01:28:35.200Z,956.34
2022-11-22T01:36:07.292Z,956.37
2022-11-22T01:43:47.136Z,956.46
2022-11-22T01:51:23.192Z,956.42
2022-11-22T01:59:11.387Z,956.51
2022-11-22T02:06:51.349Z,956.49
2022-11-22T02:14:33.096Z,956.5
2022-11-22T02:21:55.535Z,956.67
2022-11-22T02:29:53.950Z,956.76
2022-11-22T02:37:33.916Z,956.84
2022-11-22T02:45:18.461Z,956.98
2022-11-22T02:52:53.702Z,957.03
2022-11-22T03:00:29.316Z,957.1
2022-11-22T03:08:09.926Z,957.23
2022-11-22T03:15:51.347Z,957.32
2022-11-22T03:23:23.319Z,957.39
2022-11-22T03:30:51.465Z,957.43
2022-11-22T03:38:21.975Z,957.24
2022-11-22T03:45:53.903Z,957.34
2022-11-22T03:53:18.438Z,957.32
2022-11-22T04:00:42.570Z,957.24
2022-11-22T04:08:06.465Z,957.3
2022-11-22T04:15:40.362Z,957.28
2022-11-22T04:23:08.400Z,957.29
2022-11-22T04:30:21.716Z,957.26
2022-11-22T04:37:46.435Z,957.37
2022-11-22T04:45:18.520Z,957.44
2022-11-22T04:52:48.874Z,957.59
2022-11-22T05:00:15.646Z,957.6
2022-11-22T05:07:17.621Z,957.68
2022-11-22T05:13:52.897Z,957.74
2022-11-22T05:20:16.486Z,957.68
2022-11-22T05:26:41.461Z,957.72
2022-11-22T05:33:14.500Z,957.72
2022-11-22T05:39:48.937Z,957.81
2022-11-22T05:46:25.531Z,957.82
2022-11-22T05:52:47.744Z,957.96
2022-11-22T05:59:29.720Z,957.93
2022-11-22T06:05:50.954Z,958.06
2022-11-22T06:12:23.435Z,958.09
2022-11-22T06:18:53.360Z,958.13
2022-11-22T06:25:28.501Z,958.19
2022-11-22T06:32:03.945Z,958.32
2022-11-22T06:38:39.718Z,958.4
2022-11-22T06:45:02.622Z,958.39
2022-11-22T06:51:34.886Z,958.34
2022-11-22T06:58:01.325Z,958.34
2022-11-22T07:04:28.653Z,958.34
2022-11-22T07:11:00.599Z,958.35
2022-11-22T07:17:25.399Z,958.39
2022-11-22T07:23:57.837Z,958.34
2022-11-22T07:30:27.465Z,958.23
2022-11-22T07:37:09.412Z,958.46
2022-11-22T07:43:38.157Z,958.64
2022-11-22T07:50:14.880Z,958.64
2022-11-22T07:56:48.784Z,958.74
2022-11-22T08:03:27.146Z,958.77
2022-11-22T08:10:04.802Z,958.79
2022-11-22T08:16:27.612Z,958.79
2022-11-22T08:22:56.850Z,958.8
2022-11-22T08:29:24.858Z,958.87
2022-11-22T08:35:48.690Z,958.85
2022-11-22T08:42:15.204Z,958.9
2022-11-22T08:48:53.459Z,958.87
2022-11-22T08:55:19.845Z,958.89
2022-11-22T09:01:55.660Z,958.94
2022-11-22T09:08:25.039Z,958.94
2022-11-22T09:14:53.662Z,958.9
2022-11-22T09:21:15.910Z,958.83
2022-11-22T09:27:47.778Z,958.88
2022-11-22T09:34:52.474Z,958.93
2022-11-22T09:42:18.327Z,958.86
2022-11-22T09:50:42.055Z,958.75
2022-11-22T09:58:53.444Z,958.7
2022-11-22T10:07:18.649Z,958.7
2022-11-22T10:15:31.672Z,958.6
2022-11-22T10:23:28.532Z,958.54
2022-11-22T10:31:47.230Z,958.56
2022-11-22T10:40:12.617Z,958.52
2022-11-22T10:48:48.263Z,958.43
2022-11-22T10:57:10.031Z,958.32
2022-11-22T11:05:21.432Z,958.33
2022-11-22T11:13:36.955Z,958.27
2022-11-22T11:21:48.674Z,958.16
2022-11-22T11:29:54.229Z,958.1
2022-11-22T11:38:14.782Z,958.13
2022-11-22T11:46:20.944Z,958.13
2022-11-22T11:54:28.901Z,958.17
2022-11-22T12:02:20.611Z,958.17
2022-11-22T12:10:11.706Z,958.27
2022-11-22T12:18:41.845Z,958.13
2022-11-22T12:26:58.810Z,958.16
2022-11-22T12:34:55.791Z,958.11
2022-11-22T12:43:21.964Z,958.18
2022-11-22T12:51:53.192Z,958.22
2022-11-22T13:00:28.925Z,958.28
2022-11-22T13:08:31.616Z,958.26
2022-11-22T13:17:01.366Z,958.26
2022-11-22T13:25:28.591Z,958.21
2022-11-22T13:33:44.138Z,958.26
2022-11-22T13:42:09.212Z,958.24
2022-11-22T13:50:16.122Z,958.2
2022-11-22T13:58:12.123Z,958.19
2022-11-22T14:06:22.264Z,958.22
2022-11-22T14:14:26.392Z,958.26
2022-11-22T14:22:46.524Z,958.21
2022-11-22T14:31:05.975Z,958.13
2022-11-22T14:39:14.890Z,958.27
2022-11-22T14:47:26.688Z,958.26
2022-11-22T14:55:33.451Z,958.35
2022-11-22T15:03:48.138Z,958.4
2022-11-22T15:12:16.225Z,958.4
2022-11-22T16:01:26.529Z,958.96
2022-11-22T16:09:24.339Z,958.97
2022-11-22T16:17:37.572Z,959.06
2022-11-22T16:25:51.656Z,959.12
2022-11-22T16:34:04.400Z,959.13
2022-11-22T16:41:55.533Z,959.21
2022-11-22T16:49:45.040Z,959.29
2022-11-22T16:57:36.614Z,959.32
2022-11-22T17:05:33.186Z,959.41
2022-11-22T17:13:11.716Z,959.45
2022-11-22T17:21:13.113Z,959.5
2022-11-22T17:29:01.038Z,959.56
2022-11-22T17:36:46.923Z,959.61
2022-11-22T17:44:28.880Z,959.83
2022-11-22T17:52:16.660Z,959.95
2022-11-22T17:59:55.663Z,960.07
2022-11-22T18:07:54.559Z,960.14
2022-11-22T18:15:38.489Z,960.15
2022-11-22T18:23:20.358Z,960.18
2022-11-22T18:30:56.253Z,960.19
2022-11-22T18:38:32.300Z,960.29
2022-11-22T18:46:15.723Z,960.31
2022-11-22T18:53:52.796Z,960.31
2022-11-22T19:01:46.847Z,960.34
2022-11-22T19:09:19.600Z,960.49
2022-11-22T19:16:59.670Z,960.67
2022-11-22T19:24:37.647Z,960.63
2022-11-22T19:32:17.162Z,960.53
2022-11-22T19:40:04.557Z,960.56
2022-11-22T19:47:43.580Z,960.53
2022-11-22T19:55:11.708Z,960.6
2022-11-22T20:02:49.528Z,960.69
2022-11-22T20:10:29.281Z,960.81
2022-11-22T20:18:19.664Z,960.84
2022-11-22T20:25:57.392Z,960.96
2022-11-22T20:33:46.238Z,960.99
2022-11-22T20:41:29.008Z,961.03
2022-11-22T20:49:11.760Z,961.05
2022-11-22T20:56:58.645Z,961.1
2022-11-22T21:04:38.940Z,961.19
2022-11-22T21:12:08.064Z,961.15
2022-11-22T21:19:50.377Z,961.18
2022-11-22T21:27:23.453Z,961.24
2022-11-22T21:35:16.186Z,961.25
2022-11-22T21:42:49.267Z,961.24
2022-11-22T21:50:32.702Z,961.22
2022-11-22T21:58:16.940Z,961.19
2022-11-22T22:06:05.136Z,961.25
2022-11-22T22:13:47.911Z,961.3
2022-11-22T22:21:23.766Z,961.33
2022-11-22T22:29:20.589Z,961.31
2022-11-22T22:37:13.256Z,961.32
2022-11-22T22:44:57.884Z,961.42
2022-11-22T22:52:45.215Z,961.45
2022-11-22T23:00:33.131Z,961.52
2022-11-22T23:08:08.899Z,961.53
2022-11-22T23:15:59.451Z,961.54
2022-11-22T23:23:44.078Z,961.55
2022-11-22T23:31:31.213Z,961.6
2022-11-22T23:39:19.393Z,961.64
2022-11-22T23:47:08.231Z,961.72
2022-11-22T23:54:50.613Z,961.71
